sensor_id;sensor_type;location;lat;lon;timestamp;pressure;altitude;pressure_sealevel;temperature;humidity
7962;BME280;4026;43.652;24.906;2023-01-28T00:01:23;98762.03;;;1.20;100.00
7962;BME280;4026;43.652;24.906;2023-01-28T00:03:50;98755.94;;;1.25;100.00
7962;BME280;4026;43.652;24.906;2023-01-28T00:06:17;98764.06;;;1.32;100.00
7962;BME280;4026;43.652;24.906;2023-01-28T00:08:47;98768.34;;;1.30;100.00
7962;BME280;4026;43.652;24.906;2023-01-28T00:11:14;98769.22;;;1.29;100.00
7962;BME280;4026;43.652;24.906;2023-01-28T00:13:40;98764.84;;;1.34;100.00
7962;BME280;4026;43.652;24.906;2023-01-28T00:16:08;98771.38;;;1.38;100.00
7962;BME280;4026;43.652;24.906;2023-01-28T00:18:35;98776.66;;;1.32;100.00
7962;BME280;4026;43.652;24.906;2023-01-28T00:21:04;98771.63;;;1.32;100.00
7962;BME280;4026;43.652;24.906;2023-01-28T00:23:33;98778.28;;;1.33;100.00
7962;BME280;4026;43.652;24.906;2023-01-28T00:26:04;98774.25;;;1.29;100.00
7962;BME280;4026;43.652;24.906;2023-01-28T00:28:31;98779.34;;;1.27;100.00
7962;BME280;4026;43.652;24.906;2023-01-28T00:30:59;98779.13;;;1.11;100.00
7962;BME280;4026;43.652;24.906;2023-01-28T00:33:31;98776.97;;;1.02;100.00
7962;BME280;4026;43.652;24.906;2023-01-28T00:35:58;98780.00;;;1.10;100.00
7962;BME280;4026;43.652;24.906;2023-01-28T00:38:25;98778.94;;;1.16;100.00
7962;BME280;4026;43.652;24.906;2023-01-28T00:40:52;98790.63;;;0.97;100.00
7962;BME280;4026;43.652;24.906;2023-01-28T00:43:21;98785.22;;;1.06;100.00
7962;BME280;4026;43.652;24.906;2023-01-28T00:45:47;98787.88;;;0.57;100.00
7962;BME280;4026;43.652;24.906;2023-01-28T00:48:14;98793.56;;;0.62;100.00
7962;BME280;4026;43.652;24.906;2023-01-28T00:50:41;98793.41;;;0.67;100.00
7962;BME280;4026;43.652;24.906;2023-01-28T00:53:08;98794.69;;;0.77;100.00
7962;BME280;4026;43.652;24.906;2023-01-28T00:55:35;98794.00;;;0.96;100.00
7962;BME280;4026;43.652;24.906;2023-01-28T00:58:02;98791.19;;;1.03;100.00
7962;BME280;4026;43.652;24.906;2023-01-28T01:00:30;98795.88;;;1.12;100.00
7962;BME280;4026;43.652;24.906;2023-01-28T01:02:58;98802.44;;;1.17;100.00
7962;BME280;4026;43.652;24.906;2023-01-28T01:05:25;98801.91;;;1.08;100.00
7962;BME280;4026;43.652;24.906;2023-01-28T01:07:54;98801.72;;;1.13;100.00
7962;BME280;4026;43.652;24.906;2023-01-28T01:10:21;98801.44;;;1.21;100.00
7962;BME280;4026;43.652;24.906;2023-01-28T01:12:48;98798.91;;;1.21;100.00
7962;BME280;4026;43.652;24.906;2023-01-28T01:15:16;98802.38;;;1.18;100.00
7962;BME280;4026;43.652;24.906;2023-01-28T01:17:46;98804.78;;;1.21;100.00
7962;BME280;4026;43.652;24.906;2023-01-28T01:20:16;98808.41;;;1.14;100.00
7962;BME280;4026;43.652;24.906;2023-01-28T01:22:43;98807.25;;;1.23;100.00
7962;BME280;4026;43.652;24.906;2023-01-28T01:25:11;98803.72;;;1.27;100.00
7962;BME280;4026;43.652;24.906;2023-01-28T01:27:39;98807.81;;;1.29;100.00
7962;BME280;4026;43.652;24.906;2023-01-28T01:30:07;98810.97;;;1.34;100.00
7962;BME280;4026;43.652;24.906;2023-01-28T01:32:35;98807.66;;;1.34;100.00
7962;BME280;4026;43.652;24.906;2023-01-28T01:35:05;98808.34;;;1.38;100.00
7962;BME280;4026;43.652;24.906;2023-01-28T01:37:33;98805.00;;;1.37;100.00
7962;BME280;4026;43.652;24.906;2023-01-28T01:40:00;98813.44;;;1.36;100.00
7962;BME280;4026;43.652;24.906;2023-01-28T01:42:29;98824.47;;;1.11;100.00
7962;BME280;4026;43.652;24.906;2023-01-28T01:44:58;98822.91;;;1.07;100.00
7962;BME280;4026;43.652;24.906;2023-01-28T01:47:30;98827.84;;;1.10;100.00
7962;BME280;4026;43.652;24.906;2023-01-28T01:50:01;98823.41;;;1.17;100.00
7962;BME280;4026;43.652;24.906;2023-01-28T01:52:32;98824.75;;;1.26;100.00
7962;BME280;4026;43.652;24.906;2023-01-28T01:55:04;98827.03;;;1.32;100.00
7962;BME280;4026;43.652;24.906;2023-01-28T01:57:33;98823.50;;;1.36;100.00
7962;BME280;4026;43.652;24.906;2023-01-28T02:00:04;98826.25;;;1.30;100.00
7962;BME280;4026;43.652;24.906;2023-01-28T02:02:37;98828.53;;;1.36;100.00
7962;BME280;4026;43.652;24.906;2023-01-28T02:05:06;98825.28;;;1.34;100.00
7962;BME280;4026;43.652;24.906;2023-01-28T02:07:36;98831.00;;;1.38;100.00
7962;BME280;4026;43.652;24.906;2023-01-28T02:10:05;98834.47;;;1.35;100.00
7962;BME280;4026;43.652;24.906;2023-01-28T02:12:34;98833.56;;;1.36;100.00
7962;BME280;4026;43.652;24.906;2023-01-28T02:15:04;98835.25;;;1.37;100.00
7962;BME280;4026;43.652;24.906;2023-01-28T02:17:33;98834.47;;;1.35;100.00
7962;BME280;4026;43.652;24.906;2023-01-28T02:20:03;98838.63;;;1.36;100.00
7962;BME280;4026;43.652;24.906;2023-01-28T02:25:50;98833.22;;;1.45;100.00
7962;BME280;4026;43.652;24.906;2023-01-28T02:28:31;98841.78;;;1.41;100.00
7962;BME280;4026;43.652;24.906;2023-01-28T02:31:06;98841.91;;;1.38;100.00
7962;BME280;4026;43.652;24.906;2023-01-28T02:33:38;98841.91;;;1.38;100.00
7962;BME280;4026;43.652;24.906;2023-01-28T02:36:15;98850.59;;;1.31;100.00
7962;BME280;4026;43.652;24.906;2023-01-28T02:38:46;98853.97;;;1.30;100.00
7962;BME280;4026;43.652;24.906;2023-01-28T02:41:19;98852.22;;;1.32;100.00
7962;BME280;4026;43.652;24.906;2023-01-28T02:43:48;98858.16;;;1.31;100.00
7962;BME280;4026;43.652;24.906;2023-01-28T02:46:20;98861.25;;;1.38;100.00
7962;BME280;4026;43.652;24.906;2023-01-28T02:49:08;98858.47;;;1.44;100.00
7962;BME280;4026;43.652;24.906;2023-01-28T02:54:41;98860.41;;;1.37;100.00
7962;BME280;4026;43.652;24.906;2023-01-28T02:57:19;98861.94;;;1.41;100.00
7962;BME280;4026;43.652;24.906;2023-01-28T02:59:56;98868.16;;;1.54;100.00
7962;BME280;4026;43.652;24.906;2023-01-28T03:02:32;98871.28;;;1.59;100.00
7962;BME280;4026;43.652;24.906;2023-01-28T03:05:05;98872.41;;;1.52;100.00
7962;BME280;4026;43.652;24.906;2023-01-28T03:07:34;98871.00;;;1.45;100.00
7962;BME280;4026;43.652;24.906;2023-01-28T03:10:05;98871.88;;;1.44;100.00
7962;BME280;4026;43.652;24.906;2023-01-28T03:12:34;98876.16;;;1.42;100.00
7962;BME280;4026;43.652;24.906;2023-01-28T03:15:23;98879.56;;;1.41;100.00
7962;BME280;4026;43.652;24.906;2023-01-28T03:18:10;98888.88;;;1.39;100.00
7962;BME280;4026;43.652;24.906;2023-01-28T03:21:01;98879.69;;;1.38;100.00
7962;BME280;4026;43.652;24.906;2023-01-28T03:23:52;98884.06;;;1.33;100.00
7962;BME280;4026;43.652;24.906;2023-01-28T03:26:42;98893.41;;;1.31;100.00
7962;BME280;4026;43.652;24.906;2023-01-28T03:29:28;98886.81;;;1.27;100.00
7962;BME280;4026;43.652;24.906;2023-01-28T03:32:16;98890.03;;;1.30;100.00
7962;BME280;4026;43.652;24.906;2023-01-28T03:35:02;98889.56;;;1.21;100.00
7962;BME280;4026;43.652;24.906;2023-01-28T03:37:48;98893.69;;;1.23;100.00
7962;BME280;4026;43.652;24.906;2023-01-28T03:40:16;98892.97;;;1.20;100.00
7962;BME280;4026;43.652;24.906;2023-01-28T03:42:43;98897.16;;;1.19;100.00
7962;BME280;4026;43.652;24.906;2023-01-28T03:45:11;98895.19;;;1.27;100.00
7962;BME280;4026;43.652;24.906;2023-01-28T03:47:39;98905.38;;;1.24;100.00
7962;BME280;4026;43.652;24.906;2023-01-28T03:50:08;98896.13;;;1.25;100.00
7962;BME280;4026;43.652;24.906;2023-01-28T03:52:35;98906.09;;;1.28;100.00
7962;BME280;4026;43.652;24.906;2023-01-28T03:55:03;98900.31;;;1.26;100.00
7962;BME280;4026;43.652;24.906;2023-01-28T03:57:38;98900.69;;;1.15;100.00
7962;BME280;4026;43.652;24.906;2023-01-28T04:00:06;98905.84;;;1.12;100.00
7962;BME280;4026;43.652;24.906;2023-01-28T04:02:34;98912.72;;;1.07;100.00
7962;BME280;4026;43.652;24.906;2023-01-28T04:05:07;98909.13;;;1.14;100.00
7962;BME280;4026;43.652;24.906;2023-01-28T04:07:37;98906.78;;;1.09;100.00
7962;BME280;4026;43.652;24.906;2023-01-28T04:10:06;98912.50;;;1.13;100.00
7962;BME280;4026;43.652;24.906;2023-01-28T04:12:34;98913.44;;;1.10;100.00
7962;BME280;4026;43.652;24.906;2023-01-28T04:15:04;98920.13;;;1.11;100.00
7962;BME280;4026;43.652;24.906;2023-01-28T04:17:42;98907.69;;;1.07;100.00
7962;BME280;4026;43.652;24.906;2023-01-28T04:20:11;98915.88;;;1.13;100.00
7962;BME280;4026;43.652;24.906;2023-01-28T04:22:38;98921.66;;;1.16;100.00
7962;BME280;4026;43.652;24.906;2023-01-28T04:25:06;98926.56;;;1.19;100.00
7962;BME280;4026;43.652;24.906;2023-01-28T04:27:33;98924.81;;;1.21;100.00
7962;BME280;4026;43.652;24.906;2023-01-28T04:29:59;98920.44;;;1.26;100.00
7962;BME280;4026;43.652;24.906;2023-01-28T04:32:26;98923.50;;;1.34;100.00
7962;BME280;4026;43.652;24.906;2023-01-28T04:34:53;98927.47;;;1.18;100.00
7962;BME280;4026;43.652;24.906;2023-01-28T04:37:21;98935.66;;;1.23;100.00
7962;BME280;4026;43.652;24.906;2023-01-28T04:39:48;98929.88;;;1.21;100.00
7962;BME280;4026;43.652;24.906;2023-01-28T04:42:15;98934.78;;;1.24;100.00
7962;BME280;4026;43.652;24.906;2023-01-28T04:44:42;98931.50;;;1.22;100.00
7962;BME280;4026;43.652;24.906;2023-01-28T04:47:09;98929.88;;;1.21;100.00
7962;BME280;4026;43.652;24.906;2023-01-28T04:49:35;98929.38;;;1.11;100.00
7962;BME280;4026;43.652;24.906;2023-01-28T04:52:02;98936.09;;;0.87;100.00
7962;BME280;4026;43.652;24.906;2023-01-28T04:54:31;98936.59;;;0.97;100.00
7962;BME280;4026;43.652;24.906;2023-01-28T04:56:57;98939.38;;;0.65;100.00
7962;BME280;4026;43.652;24.906;2023-01-28T04:59:24;98937.00;;;0.61;100.00
7962;BME280;4026;43.652;24.906;2023-01-28T05:01:51;98944.88;;;0.27;100.00
7962;BME280;4026;43.652;24.906;2023-01-28T05:04:18;98944.69;;;0.06;100.00
7962;BME280;4026;43.652;24.906;2023-01-28T05:06:45;98941.56;;;-0.29;100.00
7962;BME280;4026;43.652;24.906;2023-01-28T05:09:12;98942.59;;;-0.34;100.00
7962;BME280;4026;43.652;24.906;2023-01-28T05:11:40;98944.75;;;-0.24;100.00
7962;BME280;4026;43.652;24.906;2023-01-28T05:14:07;98943.09;;;-0.53;100.00
7962;BME280;4026;43.652;24.906;2023-01-28T05:16:34;98947.41;;;-0.56;100.00
7962;BME280;4026;43.652;24.906;2023-01-28T05:19:01;98955.75;;;-0.26;100.00
7962;BME280;4026;43.652;24.906;2023-01-28T05:21:28;98955.53;;;-0.20;100.00
7962;BME280;4026;43.652;24.906;2023-01-28T05:23:55;98952.91;;;-0.43;100.00
7962;BME280;4026;43.652;24.906;2023-01-28T05:26:21;98943.69;;;-0.43;100.00
7962;BME280;4026;43.652;24.906;2023-01-28T05:28:50;98944.22;;;-0.33;100.00
7962;BME280;4026;43.652;24.906;2023-01-28T05:31:16;98948.41;;;-0.34;100.00
7962;BME280;4026;43.652;24.906;2023-01-28T05:33:43;98949.78;;;-0.24;100.00
7962;BME280;4026;43.652;24.906;2023-01-28T05:36:10;98950.78;;;-0.29;100.00
7962;BME280;4026;43.652;24.906;2023-01-28T05:38:37;98946.41;;;-0.22;100.00
7962;BME280;4026;43.652;24.906;2023-01-28T05:41:04;98946.38;;;-0.49;100.00
7962;BME280;4026;43.652;24.906;2023-01-28T05:43:31;98945.84;;;-0.32;100.00
7962;BME280;4026;43.652;24.906;2023-01-28T05:45:59;98946.50;;;-0.26;100.00
7962;BME280;4026;43.652;24.906;2023-01-28T05:48:26;98958.19;;;-0.25;100.00
7962;BME280;4026;43.652;24.906;2023-01-28T05:50:52;98954.53;;;-0.14;100.00
7962;BME280;4026;43.652;24.906;2023-01-28T05:53:19;98948.88;;;-0.49;100.00
7962;BME280;4026;43.652;24.906;2023-01-28T05:55:47;98955.13;;;-0.34;100.00
7962;BME280;4026;43.652;24.906;2023-01-28T05:58:14;98955.03;;;-0.59;100.00
7962;BME280;4026;43.652;24.906;2023-01-28T06:00:41;98953.41;;;-0.60;100.00
7962;BME280;4026;43.652;24.906;2023-01-28T06:03:09;98957.34;;;-0.53;100.00
7962;BME280;4026;43.652;24.906;2023-01-28T06:05:36;98957.34;;;-0.53;100.00
7962;BME280;4026;43.652;24.906;2023-01-28T06:08:04;98959.69;;;-0.47;100.00
7962;BME280;4026;43.652;24.906;2023-01-28T06:10:31;98963.88;;;-0.46;100.00
7962;BME280;4026;43.652;24.906;2023-01-28T06:12:58;98968.19;;;-0.51;100.00
7962;BME280;4026;43.652;24.906;2023-01-28T06:15:25;98974.25;;;-0.30;100.00
7962;BME280;4026;43.652;24.906;2023-01-28T06:17:52;98972.84;;;-0.11;100.00
7962;BME280;4026;43.652;24.906;2023-01-28T06:20:20;98976.28;;;-0.13;100.00
7962;BME280;4026;43.652;24.906;2023-01-28T06:22:49;98974.97;;;0.02;100.00
7962;BME280;4026;43.652;24.906;2023-01-28T06:25:16;98979.19;;;0.01;100.00
7962;BME280;4026;43.652;24.906;2023-01-28T06:27:43;98984.50;;;-0.08;100.00
7962;BME280;4026;43.652;24.906;2023-01-28T06:30:10;98991.84;;;-0.02;100.00
7962;BME280;4026;43.652;24.906;2023-01-28T06:32:37;98987.59;;;0.00;100.00
7962;BME280;4026;43.652;24.906;2023-01-28T06:35:05;98986.53;;;0.07;100.00
7962;BME280;4026;43.652;24.906;2023-01-28T06:37:33;98992.56;;;0.02;100.00
7962;BME280;4026;43.652;24.906;2023-01-28T06:40:00;98993.78;;;0.16;100.00
7962;BME280;4026;43.652;24.906;2023-01-28T06:42:27;98997.72;;;-0.03;100.00
7962;BME280;4026;43.652;24.906;2023-01-28T06:44:54;98992.38;;;-0.20;100.00
7962;BME280;4026;43.652;24.906;2023-01-28T06:47:21;98996.56;;;-0.19;100.00
7962;BME280;4026;43.652;24.906;2023-01-28T06:49:49;99003.44;;;0.02;100.00
7962;BME280;4026;43.652;24.906;2023-01-28T06:52:16;99002.84;;;-0.06;100.00
7962;BME280;4026;43.652;24.906;2023-01-28T06:54:44;99004.50;;;-0.33;100.00
7962;BME280;4026;43.652;24.906;2023-01-28T06:57:11;99008.47;;;-0.54;100.00
7962;BME280;4026;43.652;24.906;2023-01-28T06:59:38;99019.16;;;-0.48;100.00
7962;BME280;4026;43.652;24.906;2023-01-28T07:02:05;99013.00;;;-0.37;100.00
7962;BME280;4026;43.652;24.906;2023-01-28T07:04:31;99009.25;;;-0.52;100.00
7962;BME280;4026;43.652;24.906;2023-01-28T07:06:58;99014.28;;;-0.52;100.00
7962;BME280;4026;43.652;24.906;2023-01-28T07:09:25;99012.00;;;-0.32;100.00
7962;BME280;4026;43.652;24.906;2023-01-28T07:11:53;99020.31;;;-0.30;100.00
7962;BME280;4026;43.652;24.906;2023-01-28T07:14:20;99021.19;;;-0.31;100.00
7962;BME280;4026;43.652;24.906;2023-01-28T07:16:47;99023.47;;;-0.53;100.00
7962;BME280;4026;43.652;24.906;2023-01-28T07:19:14;99019.31;;;-0.54;100.00
7962;BME280;4026;43.652;24.906;2023-01-28T07:21:41;99018.66;;;-0.31;100.00
7962;BME280;4026;43.652;24.906;2023-01-28T07:24:08;99028.34;;;-0.47;100.00
7962;BME280;4026;43.652;24.906;2023-01-28T07:26:34;99029.72;;;-0.36;100.00
7962;BME280;4026;43.652;24.906;2023-01-28T07:29:03;99026.75;;;-0.51;100.00
7962;BME280;4026;43.652;24.906;2023-01-28T07:31:30;99036.59;;;-0.43;100.00
7962;BME280;4026;43.652;24.906;2023-01-28T07:33:56;99039.66;;;-0.33;100.00
7962;BME280;4026;43.652;24.906;2023-01-28T07:36:23;99037.03;;;-0.29;100.00
7962;BME280;4026;43.652;24.906;2023-01-28T07:38:50;99045.31;;;-0.27;100.00
7962;BME280;4026;43.652;24.906;2023-01-28T07:41:17;99041.28;;;-0.31;100.00
7962;BME280;4026;43.652;24.906;2023-01-28T07:43:44;99045.50;;;-0.33;100.00
7962;BME280;4026;43.652;24.906;2023-01-28T07:46:12;99045.00;;;-0.14;100.00
7962;BME280;4026;43.652;24.906;2023-01-28T07:48:39;99048.09;;;-0.06;100.00
7962;BME280;4026;43.652;24.906;2023-01-28T07:51:06;99043.84;;;-0.04;100.00
7962;BME280;4026;43.652;24.906;2023-01-28T07:53:33;99047.59;;;-0.17;100.00
7962;BME280;4026;43.652;24.906;2023-01-28T07:56:00;99053.91;;;-0.04;100.00
7962;BME280;4026;43.652;24.906;2023-01-28T07:58:27;99058.78;;;0.01;100.00
7962;BME280;4026;43.652;24.906;2023-01-28T08:00:56;99058.78;;;0.01;100.00
7962;BME280;4026;43.652;24.906;2023-01-28T08:03:26;99063.53;;;-0.18;100.00
7962;BME280;4026;43.652;24.906;2023-01-28T08:05:54;99062.13;;;0.01;100.00
7962;BME280;4026;43.652;24.906;2023-01-28T08:08:22;99065.66;;;-0.05;100.00
7962;BME280;4026;43.652;24.906;2023-01-28T08:10:50;99078.25;;;-0.06;100.00
7962;BME280;4026;43.652;24.906;2023-01-28T08:13:18;99078.47;;;-0.14;100.00
7962;BME280;4026;43.652;24.906;2023-01-28T08:15:45;99072.41;;;-0.07;100.00
7962;BME280;4026;43.652;24.906;2023-01-28T08:18:14;99078.22;;;0.24;100.00
7962;BME280;4026;43.652;24.906;2023-01-28T08:20:43;99090.56;;;0.03;100.00
7962;BME280;4026;43.652;24.906;2023-01-28T08:23:13;99097.91;;;0.09;100.00
7962;BME280;4026;43.652;24.906;2023-01-28T08:25:40;99086.56;;;-0.04;100.00
7962;BME280;4026;43.652;24.906;2023-01-28T08:28:08;99104.31;;;0.19;100.00
7962;BME280;4026;43.652;24.906;2023-01-28T08:30:35;99109.22;;;0.24;100.00
7962;BME280;4026;43.652;24.906;2023-01-28T08:33:04;99110.81;;;0.27;100.00
7962;BME280;4026;43.652;24.906;2023-01-28T08:35:31;99114.09;;;0.29;100.00
7962;BME280;4026;43.652;24.906;2023-01-28T08:38:01;99111.25;;;0.39;100.00
7962;BME280;4026;43.652;24.906;2023-01-28T08:40:28;99126.44;;;0.36;100.00
7962;BME280;4026;43.652;24.906;2023-01-28T08:42:55;99117.56;;;0.53;100.00
7962;BME280;4026;43.652;24.906;2023-01-28T08:45:24;99127.84;;;0.45;100.00
7962;BME280;4026;43.652;24.906;2023-01-28T08:47:52;99124.97;;;0.57;100.00
7962;BME280;4026;43.652;24.906;2023-01-28T08:50:20;99134.63;;;0.70;100.00
7962;BME280;4026;43.652;24.906;2023-01-28T08:52:47;99125.25;;;0.48;100.00
7962;BME280;4026;43.652;24.906;2023-01-28T08:55:16;99130.66;;;0.62;100.00
7962;BME280;4026;43.652;24.906;2023-01-28T08:57:43;99132.38;;;0.62;100.00
7962;BME280;4026;43.652;24.906;2023-01-28T09:00:11;99120.81;;;0.56;100.00
7962;BME280;4026;43.652;24.906;2023-01-28T09:02:39;99121.50;;;0.61;100.00
7962;BME280;4026;43.652;24.906;2023-01-28T09:05:07;99120.22;;;0.48;100.00
7962;BME280;4026;43.652;24.906;2023-01-28T09:07:35;99121.84;;;0.49;100.00
7962;BME280;4026;43.652;24.906;2023-01-28T09:10:03;99118.19;;;0.31;100.00
7962;BME280;4026;43.652;24.906;2023-01-28T09:12:32;99115.81;;;0.55;100.00
7962;BME280;4026;43.652;24.906;2023-01-28T09:14:59;99127.38;;;0.60;100.00
7962;BME280;4026;43.652;24.906;2023-01-28T09:17:26;99120.72;;;0.59;100.00
7962;BME280;4026;43.652;24.906;2023-01-28T09:19:53;99126.75;;;0.80;100.00
7962;BME280;4026;43.652;24.906;2023-01-28T09:22:20;99125.75;;;0.86;100.00
7962;BME280;4026;43.652;24.906;2023-01-28T09:24:46;99122.41;;;0.85;100.00
7962;BME280;4026;43.652;24.906;2023-01-28T09:27:13;99120.50;;;0.92;100.00
7962;BME280;4026;43.652;24.906;2023-01-28T09:29:42;99120.31;;;0.98;100.00
7962;BME280;4026;43.652;24.906;2023-01-28T09:32:08;99114.41;;;1.24;100.00
7962;BME280;4026;43.652;24.906;2023-01-28T09:34:36;99112.16;;;1.17;100.00
7962;BME280;4026;43.652;24.906;2023-01-28T09:37:03;99109.75;;;1.13;100.00
7962;BME280;4026;43.652;24.906;2023-01-28T09:39:30;99112.31;;;1.37;100.00
7962;BME280;4026;43.652;24.906;2023-01-28T09:42:07;99109.00;;;1.60;100.00
7962;BME280;4026;43.652;24.906;2023-01-28T09:44:51;99109.41;;;1.48;100.00
7962;BME280;4026;43.652;24.906;2023-01-28T09:47:26;99108.69;;;1.68;100.00
7962;BME280;4026;43.652;24.906;2023-01-28T09:49:59;99108.69;;;1.91;100.00
7962;BME280;4026;43.652;24.906;2023-01-28T09:52:30;99100.34;;;2.13;100.00
7962;BME280;4026;43.652;24.906;2023-01-28T09:55:02;99097.44;;;1.78;100.00
7962;BME280;4026;43.652;24.906;2023-01-28T09:57:36;99101.16;;;2.35;100.00
7962;BME280;4026;43.652;24.906;2023-01-28T10:00:12;99097.34;;;2.25;100.00
7962;BME280;4026;43.652;24.906;2023-01-28T10:02:53;99099.25;;;2.42;100.00
7962;BME280;4026;43.652;24.906;2023-01-28T10:05:29;99098.28;;;2.22;100.00
7962;BME280;4026;43.652;24.906;2023-01-28T10:08:09;99094.75;;;2.48;100.00
7962;BME280;4026;43.652;24.906;2023-01-28T10:10:43;99094.34;;;2.59;100.00
7962;BME280;4026;43.652;24.906;2023-01-28T10:13:21;99100.47;;;2.54;100.00
7962;BME280;4026;43.652;24.906;2023-01-28T10:16:11;99106.16;;;2.37;100.00
7962;BME280;4026;43.652;24.906;2023-01-28T10:18:46;99103.06;;;2.30;100.00
7962;BME280;4026;43.652;24.906;2023-01-28T10:21:19;99104.75;;;2.52;100.00
7962;BME280;4026;43.652;24.906;2023-01-28T10:23:55;99098.06;;;2.51;100.00
7962;BME280;4026;43.652;24.906;2023-01-28T10:26:29;99102.75;;;2.60;100.00
7962;BME280;4026;43.652;24.906;2023-01-28T10:29:02;99099.44;;;2.80;100.00
7962;BME280;4026;43.652;24.906;2023-01-28T10:31:34;99097.75;;;2.79;100.00
7962;BME280;4026;43.652;24.906;2023-01-28T10:34:03;99100.13;;;2.83;100.00
7962;BME280;4026;43.652;24.906;2023-01-28T10:36:30;99095.63;;;2.90;100.00
7962;BME280;4026;43.652;24.906;2023-01-28T10:38:57;99102.22;;;2.94;100.00
7962;BME280;4026;43.652;24.906;2023-01-28T10:41:24;99097.72;;;3.01;100.00
7962;BME280;4026;43.652;24.906;2023-01-28T10:43:51;99092.59;;;3.23;100.00
7962;BME280;4026;43.652;24.906;2023-01-28T10:46:20;99092.66;;;3.42;100.00
7962;BME280;4026;43.652;24.906;2023-01-28T10:48:56;99096.81;;;3.43;100.00
7962;BME280;4026;43.652;24.906;2023-01-28T10:51:33;99097.38;;;3.68;100.00
7962;BME280;4026;43.652;24.906;2023-01-28T10:54:01;99093.97;;;3.69;100.00
7962;BME280;4026;43.652;24.906;2023-01-28T10:56:30;99093.44;;;3.81;100.00
7962;BME280;4026;43.652;24.906;2023-01-28T10:59:00;99101.31;;;3.75;100.00
7962;BME280;4026;43.652;24.906;2023-01-28T11:01:42;99097.88;;;3.76;100.00
7962;BME280;4026;43.652;24.906;2023-01-28T11:04:20;99095.31;;;3.57;100.00
7962;BME280;4026;43.652;24.906;2023-01-28T11:06:56;99092.91;;;3.54;100.00
7962;BME280;4026;43.652;24.906;2023-01-28T11:09:24;99093.50;;;3.61;100.00
7962;BME280;4026;43.652;24.906;2023-01-28T11:11:52;99093.81;;;3.72;100.00
7962;BME280;4026;43.652;24.906;2023-01-28T11:14:21;99097.03;;;3.95;100.00
7962;BME280;4026;43.652;24.906;2023-01-28T11:16:49;99098.69;;;4.15;100.00
7962;BME280;4026;43.652;24.906;2023-01-28T11:19:19;99095.81;;;4.03;100.00
7962;BME280;4026;43.652;24.906;2023-01-28T11:21:52;99102.38;;;3.30;100.00
7962;BME280;4026;43.652;24.906;2023-01-28T11:24:21;99095.06;;;3.04;100.00
7962;BME280;4026;43.652;24.906;2023-01-28T11:26:51;99100.19;;;2.39;100.00
7962;BME280;4026;43.652;24.906;2023-01-28T11:29:24;99092.66;;;2.60;100.00
7962;BME280;4026;43.652;24.906;2023-01-28T11:31:52;99102.53;;;2.64;100.00
7962;BME280;4026;43.652;24.906;2023-01-28T11:34:25;99105.41;;;2.77;100.00
7962;BME280;4026;43.652;24.906;2023-01-28T11:36:53;99104.78;;;2.72;100.00
7962;BME280;4026;43.652;24.906;2023-01-28T11:39:22;99104.72;;;2.74;100.00
7962;BME280;4026;43.652;24.906;2023-01-28T11:41:51;99104.81;;;2.70;100.00
7962;BME280;4026;43.652;24.906;2023-01-28T11:44:20;99099.66;;;2.53;100.00
7962;BME280;4026;43.652;24.906;2023-01-28T11:47:04;99102.13;;;2.75;100.00
7962;BME280;4026;43.652;24.906;2023-01-28T11:49:47;99110.66;;;2.93;100.00
7962;BME280;4026;43.652;24.906;2023-01-28T11:52:24;99098.63;;;3.00;100.00
7962;BME280;4026;43.652;24.906;2023-01-28T11:55:00;99102.91;;;2.98;100.00
7962;BME280;4026;43.652;24.906;2023-01-28T11:57:40;99099.63;;;3.16;100.00
7962;BME280;4026;43.652;24.906;2023-01-28T12:00:27;99096.66;;;3.06;100.00
7962;BME280;4026;43.652;24.906;2023-01-28T12:03:08;99099.75;;;2.92;100.00
7962;BME280;4026;43.652;24.906;2023-01-28T12:05:47;99103.16;;;2.91;100.00
7962;BME280;4026;43.652;24.906;2023-01-28T12:08:20;99096.31;;;2.93;100.00
7962;BME280;4026;43.652;24.906;2023-01-28T12:11:00;99096.69;;;2.84;100.00
7962;BME280;4026;43.652;24.906;2023-01-28T12:13:45;99096.19;;;2.97;100.00
7962;BME280;4026;43.652;24.906;2023-01-28T12:16:50;99090.16;;;3.21;100.00
7962;BME280;4026;43.652;24.906;2023-01-28T12:19:37;99088.03;;;3.31;100.00
7962;BME280;4026;43.652;24.906;2023-01-28T12:22:39;99094.59;;;3.55;100.00
7962;BME280;4026;43.652;24.906;2023-01-28T12:25:21;99091.69;;;3.63;100.00
7962;BME280;4026;43.652;24.906;2023-01-28T12:27:56;99090.59;;;3.50;100.00
7962;BME280;4026;43.652;24.906;2023-01-28T12:30:36;99087.94;;;3.53;100.00
7962;BME280;4026;43.652;24.906;2023-01-28T12:33:32;99093.50;;;3.61;100.00
7962;BME280;4026;43.652;24.906;2023-01-28T12:36:14;99100.38;;;3.57;100.00
7962;BME280;4026;43.652;24.906;2023-01-28T12:38:57;99092.56;;;3.43;100.00
7962;BME280;4026;43.652;24.906;2023-01-28T12:41:31;99095.94;;;3.44;100.00
7962;BME280;4026;43.652;24.906;2023-01-28T12:44:02;99095.34;;;3.37;100.00
7962;BME280;4026;43.652;24.906;2023-01-28T12:46:43;99095.19;;;3.01;100.00
7962;BME280;4026;43.652;24.906;2023-01-28T12:49:17;99094.56;;;2.95;100.00
7962;BME280;4026;43.652;24.906;2023-01-28T12:51:53;99107.69;;;3.04;100.00
7962;BME280;4026;43.652;24.906;2023-01-28T12:54:29;99103.28;;;2.88;100.00
7962;BME280;4026;43.652;24.906;2023-01-28T12:56:59;99108.09;;;2.94;100.00
7962;BME280;4026;43.652;24.906;2023-01-28T12:59:28;99105.41;;;2.77;100.00
7962;BME280;4026;43.652;24.906;2023-01-28T13:02:14;99106.47;;;2.71;100.00
7962;BME280;4026;43.652;24.906;2023-01-28T13:04:49;99110.00;;;2.67;100.00
7962;BME280;4026;43.652;24.906;2023-01-28T13:07:20;99103.56;;;2.38;100.00
7962;BME280;4026;43.652;24.906;2023-01-28T13:09:56;99102.88;;;2.57;100.00
7962;BME280;4026;43.652;24.906;2023-01-28T13:12:24;99108.97;;;2.51;100.00
7962;BME280;4026;43.652;24.906;2023-01-28T13:14:52;99107.25;;;2.52;100.00
7962;BME280;4026;43.652;24.906;2023-01-28T13:17:26;99103.44;;;2.41;100.00
7962;BME280;4026;43.652;24.906;2023-01-28T13:19:54;99113.38;;;2.46;100.00
7962;BME280;4026;43.652;24.906;2023-01-28T13:22:30;99108.97;;;2.51;100.00
7962;BME280;4026;43.652;24.906;2023-01-28T13:25:18;99111.41;;;2.53;100.00
7962;BME280;4026;43.652;24.906;2023-01-28T13:27:54;99113.66;;;2.38;100.00
7962;BME280;4026;43.652;24.906;2023-01-28T13:30:25;99107.91;;;2.35;100.00
7962;BME280;4026;43.652;24.906;2023-01-28T13:32:57;99114.25;;;2.23;100.00